sensor_id;sensor_type;location;lat;lon;timestamp;pressure;altitude;pressure_sealevel;temperature;humidity
35489;BME280;21602;55.670;37.578;2023-05-03T00:01:00;99424.13;;;9.99;48.05
35489;BME280;21602;55.670;37.578;2023-05-03T00:03:28;99419.84;;;9.98;48.40
35489;BME280;21602;55.670;37.578;2023-05-03T00:05:55;99415.53;;;9.97;48.43
35489;BME280;21602;55.670;37.578;2023-05-03T00:08:21;99424.56;;;9.96;48.49
35489;BME280;21602;55.670;37.578;2023-05-03T00:10:47;99420.88;;;9.97;48.55
35489;BME280;21602;55.670;37.578;2023-05-03T00:13:12;99415.53;;;9.97;48.54
35489;BME280;21602;55.670;37.578;2023-05-03T00:15:38;99416.81;;;9.94;48.47
35489;BME280;21602;55.670;37.578;2023-05-03T00:18:03;99411.22;;;9.96;48.50
35489;BME280;21602;55.670;37.578;2023-05-03T00:20:29;99410.22;;;9.97;48.52
35489;BME280;21602;55.670;37.578;2023-05-03T00:22:54;99404.88;;;9.97;48.74
35489;BME280;21602;55.670;37.578;2023-05-03T00:25:20;99399.06;;;10.00;48.45
35489;BME280;21602;55.670;37.578;2023-05-03T00:27:46;99400.47;;;10.03;48.71
35489;BME280;21602;55.670;37.578;2023-05-03T00:30:12;99383.66;;;10.02;48.71
35489;BME280;21602;55.670;37.578;2023-05-03T00:32:37;99388.16;;;10.01;48.59
35489;BME280;21602;55.670;37.578;2023-05-03T00:35:03;99392.13;;;9.99;48.68
35489;BME280;21602;55.670;37.578;2023-05-03T00:37:29;99390.50;;;9.98;48.82
35489;BME280;21602;55.670;37.578;2023-05-03T00:39:55;99381.22;;;10.00;48.91
35489;BME280;21602;55.670;37.578;2023-05-03T00:42:21;99380.41;;;10.00;48.79
35489;BME280;21602;55.670;37.578;2023-05-03T00:44:48;99376.94;;;9.99;48.95
35489;BME280;21602;55.670;37.578;2023-05-03T00:47:14;99376.13;;;9.99;49.10
35489;BME280;21602;55.670;37.578;2023-05-03T00:49:40;99374.72;;;9.96;48.92
35489;BME280;21602;55.670;37.578;2023-05-03T00:52:06;99368.00;;;9.94;49.02
35489;BME280;21602;55.670;37.578;2023-05-03T00:54:32;99361.72;;;9.88;49.25
35489;BME280;21602;55.670;37.578;2023-05-03T00:56:59;99364.47;;;9.82;49.43
35489;BME280;21602;55.670;37.578;2023-05-03T00:59:26;99373.53;;;9.81;49.27
35489;BME280;21602;55.670;37.578;2023-05-03T01:01:52;99362.16;;;9.73;49.54
35489;BME280;21602;55.670;37.578;2023-05-03T01:04:20;99353.56;;;9.71;49.61
35489;BME280;21602;55.670;37.578;2023-05-03T01:07:05;99355.16;;;9.72;49.65
35489;BME280;21602;55.670;37.578;2023-05-03T01:12:19;99336.75;;;9.71;49.77
35489;BME280;21602;55.670;37.578;2023-05-03T01:15:07;99335.69;;;9.72;49.66
35489;BME280;21602;55.670;37.578;2023-05-03T01:17:38;99335.94;;;9.70;50.11
35489;BME280;21602;55.670;37.578;2023-05-03T01:20:05;99332.22;;;9.71;50.04
35489;BME280;21602;55.670;37.578;2023-05-03T01:25:09;99341.72;;;9.67;50.13
35489;BME280;21602;55.670;37.578;2023-05-03T01:27:35;99343.56;;;9.67;50.38
35489;BME280;21602;55.670;37.578;2023-05-03T01:30:04;99336.38;;;9.67;50.32
35489;BME280;21602;55.670;37.578;2023-05-03T01:37:46;99315.97;;;9.61;50.84
35489;BME280;21602;55.670;37.578;2023-05-03T01:40:13;99326.41;;;9.63;50.51
35489;BME280;21602;55.670;37.578;2023-05-03T01:42:45;99324.09;;;9.66;50.53
35489;BME280;21602;55.670;37.578;2023-05-03T01:45:13;99311.47;;;9.62;50.59
35489;BME280;21602;55.670;37.578;2023-05-03T01:47:39;99306.94;;;9.62;50.88
35489;BME280;21602;55.670;37.578;2023-05-03T01:50:05;99318.41;;;9.63;50.51
35489;BME280;21602;55.670;37.578;2023-05-03T01:52:32;99303.03;;;9.65;50.77
35489;BME280;21602;55.670;37.578;2023-05-03T01:54:58;99297.31;;;9.61;50.46
35489;BME280;21602;55.670;37.578;2023-05-03T01:57:24;99297.69;;;9.65;50.70
35489;BME280;21602;55.670;37.578;2023-05-03T01:59:50;99305.69;;;9.65;50.59
35489;BME280;21602;55.670;37.578;2023-05-03T02:02:15;99304.41;;;9.67;50.28
35489;BME280;21602;55.670;37.578;2023-05-03T02:04:41;99309.28;;;9.70;50.29
35489;BME280;21602;55.670;37.578;2023-05-03T02:07:07;99305.56;;;9.71;50.60
35489;BME280;21602;55.670;37.578;2023-05-03T02:09:33;99305.13;;;9.74;50.33
35489;BME280;21602;55.670;37.578;2023-05-03T02:11:59;99312.06;;;9.75;50.24
35489;BME280;21602;55.670;37.578;2023-05-03T02:14:24;99302.22;;;9.76;50.51
35489;BME280;21602;55.670;37.578;2023-05-03T02:16:50;99301.84;;;9.72;50.43
35489;BME280;21602;55.670;37.578;2023-05-03T02:19:16;99307.56;;;9.76;50.40
35489;BME280;21602;55.670;37.578;2023-05-03T02:21:41;99307.09;;;9.79;50.31
35489;BME280;21602;55.670;37.578;2023-05-03T02:24:07;99302.59;;;9.80;50.39
35489;BME280;21602;55.670;37.578;2023-05-03T02:26:33;99303.50;;;9.73;50.66
35489;BME280;21602;55.670;37.578;2023-05-03T02:28:58;99306.75;;;9.75;50.46
35489;BME280;21602;55.670;37.578;2023-05-03T02:31:26;99307.56;;;9.76;50.50
35489;BME280;21602;55.670;37.578;2023-05-03T02:33:52;99296.09;;;9.75;50.53
35489;BME280;21602;55.670;37.578;2023-05-03T02:36:21;99298.75;;;9.75;50.69
35489;BME280;21602;55.670;37.578;2023-05-03T02:38:48;99295.16;;;9.82;50.75
35489;BME280;21602;55.670;37.578;2023-05-03T02:41:13;99293.22;;;9.89;50.41
35489;BME280;21602;55.670;37.578;2023-05-03T02:43:39;99289.59;;;9.95;50.56
35489;BME280;21602;55.670;37.578;2023-05-03T02:46:04;99298.06;;;9.92;50.53
35489;BME280;21602;55.670;37.578;2023-05-03T02:48:30;99289.50;;;9.90;50.51
35489;BME280;21602;55.670;37.578;2023-05-03T02:50:56;99300.41;;;9.88;50.27
35489;BME280;21602;55.670;37.578;2023-05-03T02:53:21;99291.91;;;9.91;50.40
35489;BME280;21602;55.670;37.578;2023-05-03T02:55:48;99301.91;;;9.96;50.46
35489;BME280;21602;55.670;37.578;2023-05-03T02:58:13;99292.03;;;9.96;50.68
35489;BME280;21602;55.670;37.578;2023-05-03T03:00:39;99298.31;;;10.02;50.52
35489;BME280;21602;55.670;37.578;2023-05-03T03:03:05;99290.44;;;10.07;50.67
35489;BME280;21602;55.670;37.578;2023-05-03T03:05:32;99295.28;;;10.10;50.41
35489;BME280;21602;55.670;37.578;2023-05-03T03:07:57;99303.28;;;10.10;50.39
35489;BME280;21602;55.670;37.578;2023-05-03T03:10:23;99301.00;;;10.02;50.50
35489;BME280;21602;55.670;37.578;2023-05-03T03:12:48;99299.47;;;9.94;50.65
35489;BME280;21602;55.670;37.578;2023-05-03T03:15:23;99304.56;;;9.96;50.65
35489;BME280;21602;55.670;37.578;2023-05-03T03:17:49;99304.91;;;9.88;50.74
35489;BME280;21602;55.670;37.578;2023-05-03T03:20:15;99299.91;;;9.91;50.90
35489;BME280;21602;55.670;37.578;2023-05-03T03:22:44;99299.22;;;9.96;50.78
35489;BME280;21602;55.670;37.578;2023-05-03T03:25:10;99303.66;;;10.02;51.04
35489;BME280;21602;55.670;37.578;2023-05-03T03:27:36;99308.50;;;10.05;50.67
35489;BME280;21602;55.670;37.578;2023-05-03T03:30:01;99306.06;;;10.15;50.89
35489;BME280;21602;55.670;37.578;2023-05-03T03:32:31;99298.19;;;10.20;50.59
35489;BME280;21602;55.670;37.578;2023-05-03T03:34:59;99301.91;;;10.19;50.49
35489;BME280;21602;55.670;37.578;2023-05-03T03:37:27;99302.25;;;10.23;50.44
35489;BME280;21602;55.670;37.578;2023-05-03T03:39:53;99307.84;;;10.21;50.70
35489;BME280;21602;55.670;37.578;2023-05-03T03:42:19;99310.06;;;10.24;50.58
35489;BME280;21602;55.670;37.578;2023-05-03T03:44:46;99307.19;;;10.26;50.67
35489;BME280;21602;55.670;37.578;2023-05-03T03:47:12;99303.47;;;10.27;50.61
35489;BME280;21602;55.670;37.578;2023-05-03T03:49:38;99309.16;;;10.31;50.61
35489;BME280;21602;55.670;37.578;2023-05-03T03:52:03;99313.56;;;10.37;50.49
35489;BME280;21602;55.670;37.578;2023-05-03T03:54:31;99314.69;;;10.29;50.55
35489;BME280;21602;55.670;37.578;2023-05-03T03:56:58;99321.44;;;10.32;50.38
35489;BME280;21602;55.670;37.578;2023-05-03T03:59:25;99322.50;;;10.31;50.41
35489;BME280;21602;55.670;37.578;2023-05-03T04:01:52;99322.00;;;10.22;50.76
35489;BME280;21602;55.670;37.578;2023-05-03T04:04:17;99324.88;;;10.20;50.95
35489;BME280;21602;55.670;37.578;2023-05-03T04:06:56;99340.66;;;10.22;51.19
35489;BME280;21602;55.670;37.578;2023-05-03T04:09:25;99330.19;;;10.20;51.54
35489;BME280;21602;55.670;37.578;2023-05-03T04:11:50;99325.00;;;10.14;51.89
35489;BME280;21602;55.670;37.578;2023-05-03T04:14:16;99321.97;;;10.10;51.76
35489;BME280;21602;55.670;37.578;2023-05-03T04:16:42;99328.22;;;10.04;52.26
35489;BME280;21602;55.670;37.578;2023-05-03T04:19:07;99324.63;;;10.10;51.97
35489;BME280;21602;55.670;37.578;2023-05-03T04:21:36;99328.59;;;10.08;52.03
35489;BME280;21602;55.670;37.578;2023-05-03T04:24:03;99324.19;;;10.13;52.21
35489;BME280;21602;55.670;37.578;2023-05-03T04:26:31;99313.38;;;10.20;52.31
35489;BME280;21602;55.670;37.578;2023-05-03T04:28:59;99320.28;;;10.28;52.41
35489;BME280;21602;55.670;37.578;2023-05-03T04:31:25;99339.31;;;10.31;52.53
35489;BME280;21602;55.670;37.578;2023-05-03T04:33:53;99340.13;;;10.32;53.53
35489;BME280;21602;55.670;37.578;2023-05-03T04:36:20;99330.50;;;10.31;53.89
35489;BME280;21602;55.670;37.578;2023-05-03T04:38:50;99320.38;;;10.21;54.59
35489;BME280;21602;55.670;37.578;2023-05-03T04:41:16;99346.34;;;10.14;55.37
35489;BME280;21602;55.670;37.578;2023-05-03T04:43:43;99352.69;;;10.01;56.79
35489;BME280;21602;55.670;37.578;2023-05-03T04:46:10;99353.59;;;9.95;57.46
35489;BME280;21602;55.670;37.578;2023-05-03T04:48:36;99360.22;;;9.92;58.02
35489;BME280;21602;55.670;37.578;2023-05-03T04:51:02;99349.78;;;9.91;57.54
35489;BME280;21602;55.670;37.578;2023-05-03T04:53:28;99352.91;;;9.88;58.95
35489;BME280;21602;55.670;37.578;2023-05-03T04:56:01;99344.78;;;9.83;59.89
35489;BME280;21602;55.670;37.578;2023-05-03T04:58:30;99353.09;;;9.74;60.14
35489;BME280;21602;55.670;37.578;2023-05-03T05:00:56;99354.84;;;9.69;60.14
35489;BME280;21602;55.670;37.578;2023-05-03T05:03:26;99361.56;;;9.71;61.12
35489;BME280;21602;55.670;37.578;2023-05-03T05:05:52;99366.56;;;9.80;61.42
35489;BME280;21602;55.670;37.578;2023-05-03T05:08:18;99357.66;;;9.86;60.94
35489;BME280;21602;55.670;37.578;2023-05-03T05:10:49;99366.13;;;9.83;61.23
35489;BME280;21602;55.670;37.578;2023-05-03T05:13:19;99356.59;;;9.87;61.59
35489;BME280;21602;55.670;37.578;2023-05-03T05:15:45;99355.09;;;9.91;61.64
35489;BME280;21602;55.670;37.578;2023-05-03T05:18:12;99353.84;;;9.93;61.43
35489;BME280;21602;55.670;37.578;2023-05-03T05:20:38;99356.16;;;10.01;60.98
35489;BME280;21602;55.670;37.578;2023-05-03T05:23:04;99362.47;;;10.07;61.18
35489;BME280;21602;55.670;37.578;2023-05-03T05:25:31;99362.78;;;10.11;61.02
35489;BME280;21602;55.670;37.578;2023-05-03T05:27:59;99350.13;;;10.06;61.89
35489;BME280;21602;55.670;37.578;2023-05-03T05:30:24;99357.56;;;10.04;62.34
35489;BME280;21602;55.670;37.578;2023-05-03T05:32:50;99368.47;;;10.14;61.85
35489;BME280;21602;55.670;37.578;2023-05-03T05:35:16;99357.72;;;10.21;62.63
35489;BME280;21602;55.670;37.578;2023-05-03T05:37:43;99360.97;;;10.35;61.90
35489;BME280;21602;55.670;37.578;2023-05-03T05:40:10;99355.66;;;10.46;61.44
35489;BME280;21602;55.670;37.578;2023-05-03T05:42:45;99357.63;;;10.51;61.23
35489;BME280;21602;55.670;37.578;2023-05-03T05:45:13;99359.84;;;10.54;61.16
35489;BME280;21602;55.670;37.578;2023-05-03T05:47:40;99368.53;;;10.61;60.37
35489;BME280;21602;55.670;37.578;2023-05-03T05:50:06;99353.78;;;10.70;60.28
35489;BME280;21602;55.670;37.578;2023-05-03T05:52:32;99358.53;;;10.80;59.78
35489;BME280;21602;55.670;37.578;2023-05-03T05:54:58;99363.84;;;10.92;59.60
35489;BME280;21602;55.670;37.578;2023-05-03T05:57:23;99361.50;;;11.07;59.54
35489;BME280;21602;55.670;37.578;2023-05-03T05:59:50;99365.53;;;11.21;59.30
35489;BME280;21602;55.670;37.578;2023-05-03T06:02:15;99364.50;;;11.22;58.58
35489;BME280;21602;55.670;37.578;2023-05-03T06:04:43;99374.03;;;11.18;58.23
35489;BME280;21602;55.670;37.578;2023-05-03T06:07:10;99365.28;;;11.23;57.90
35489;BME280;21602;55.670;37.578;2023-05-03T06:09:35;99359.00;;;11.29;58.02
35489;BME280;21602;55.670;37.578;2023-05-03T06:12:02;99347.22;;;11.42;57.73
35489;BME280;21602;55.670;37.578;2023-05-03T06:14:30;99359.34;;;11.61;57.53
35489;BME280;21602;55.670;37.578;2023-05-03T06:16:56;99365.66;;;11.84;56.98
35489;BME280;21602;55.670;37.578;2023-05-03T06:19:23;99372.47;;;12.08;56.64
35489;BME280;21602;55.670;37.578;2023-05-03T06:21:50;99370.53;;;12.37;56.11
35489;BME280;21602;55.670;37.578;2023-05-03T06:24:17;99374.81;;;12.55;55.38
35489;BME280;21602;55.670;37.578;2023-05-03T06:26:46;99368.81;;;12.65;55.29
35489;BME280;21602;55.670;37.578;2023-05-03T06:29:16;99361.84;;;12.64;55.32
35489;BME280;21602;55.670;37.578;2023-05-03T06:31:42;99374.41;;;12.63;55.23
35489;BME280;21602;55.670;37.578;2023-05-03T06:34:09;99372.94;;;12.72;54.93
35489;BME280;21602;55.670;37.578;2023-05-03T06:36:36;99382.72;;;12.84;54.39
35489;BME280;21602;55.670;37.578;2023-05-03T06:39:02;99383.34;;;12.91;54.45
35489;BME280;21602;55.670;37.578;2023-05-03T06:41:29;99388.53;;;12.97;54.04
35489;BME280;21602;55.670;37.578;2023-05-03T06:43:56;99385.28;;;12.95;53.83
35489;BME280;21602;55.670;37.578;2023-05-03T06:46:22;99395.25;;;13.00;53.74
35489;BME280;21602;55.670;37.578;2023-05-03T06:48:47;99387.06;;;13.06;54.29
35489;BME280;21602;55.670;37.578;2023-05-03T06:51:13;99377.16;;;13.29;53.67
35489;BME280;21602;55.670;37.578;2023-05-03T06:53:39;99372.59;;;13.51;53.04
35489;BME280;21602;55.670;37.578;2023-05-03T06:56:05;99373.34;;;13.74;52.98
35489;BME280;21602;55.670;37.578;2023-05-03T06:58:31;99377.50;;;13.87;52.63
35489;BME280;21602;55.670;37.578;2023-05-03T07:00:56;99376.50;;;13.93;52.59
35489;BME280;21602;55.670;37.578;2023-05-03T07:03:22;99386.84;;;14.11;51.90
35489;BME280;21602;55.670;37.578;2023-05-03T07:05:48;99392.34;;;14.26;51.84
35489;BME280;21602;55.670;37.578;2023-05-03T07:08:13;99389.13;;;14.24;51.36
35489;BME280;21602;55.670;37.578;2023-05-03T07:10:39;99396.09;;;14.25;51.64
35489;BME280;21602;55.670;37.578;2023-05-03T07:13:06;99398.81;;;14.30;51.54
35489;BME280;21602;55.670;37.578;2023-05-03T07:15:31;99395.34;;;14.30;51.38
35489;BME280;21602;55.670;37.578;2023-05-03T07:17:57;99388.16;;;14.41;51.66
35489;BME280;21602;55.670;37.578;2023-05-03T07:20:22;99390.69;;;14.52;51.39
35489;BME280;21602;55.670;37.578;2023-05-03T07:22:48;99382.94;;;14.61;51.54
35489;BME280;21602;55.670;37.578;2023-05-03T07:25:13;99389.47;;;14.75;51.27
35489;BME280;21602;55.670;37.578;2023-05-03T07:27:42;99386.78;;;14.70;51.25
35489;BME280;21602;55.670;37.578;2023-05-03T07:30:07;99392.34;;;14.58;51.14
35489;BME280;21602;55.670;37.578;2023-05-03T07:32:33;99395.31;;;14.62;51.22
35489;BME280;21602;55.670;37.578;2023-05-03T07:35:00;99396.19;;;14.73;51.14
35489;BME280;21602;55.670;37.578;2023-05-03T07:37:26;99395.44;;;14.77;50.84
35489;BME280;21602;55.670;37.578;2023-05-03T07:39:52;99398.44;;;14.86;50.84
35489;BME280;21602;55.670;37.578;2023-05-03T07:42:18;99398.00;;;15.09;50.49
35489;BME280;21602;55.670;37.578;2023-05-03T07:44:43;99416.03;;;15.14;50.51
35489;BME280;21602;55.670;37.578;2023-05-03T07:47:09;99415.47;;;15.07;50.43
35489;BME280;21602;55.670;37.578;2023-05-03T07:49:36;99415.91;;;14.89;50.38
35489;BME280;21602;55.670;37.578;2023-05-03T07:52:02;99426.19;;;15.02;50.61
35489;BME280;21602;55.670;37.578;2023-05-03T07:54:27;99431.94;;;15.16;50.51
35489;BME280;21602;55.670;37.578;2023-05-03T07:56:53;99429.31;;;15.31;50.21
35489;BME280;21602;55.670;37.578;2023-05-03T07:59:19;99435.03;;;15.50;49.81
35489;BME280;21602;55.670;37.578;2023-05-03T08:01:44;99438.25;;;15.57;49.46
35489;BME280;21602;55.670;37.578;2023-05-03T08:04:10;99431.81;;;15.48;49.31
35489;BME280;21602;55.670;37.578;2023-05-03T08:06:35;99443.06;;;15.40;49.84
35489;BME280;21602;55.670;37.578;2023-05-03T08:09:02;99436.84;;;15.34;49.74
35489;BME280;21602;55.670;37.578;2023-05-03T08:11:29;99446.28;;;15.36;49.81
35489;BME280;21602;55.670;37.578;2023-05-03T08:13:54;99440.00;;;15.21;50.02
35489;BME280;21602;55.670;37.578;2023-05-03T08:16:20;99438.59;;;15.08;50.42
35489;BME280;21602;55.670;37.578;2023-05-03T08:18:46;99444.25;;;15.06;50.40
35489;BME280;21602;55.670;37.578;2023-05-03T08:21:12;99450.69;;;15.05;50.32
35489;BME280;21602;55.670;37.578;2023-05-03T08:23:38;99453.56;;;14.94;50.51
35489;BME280;21602;55.670;37.578;2023-05-03T08:26:04;99462.66;;;14.82;50.73
35489;BME280;21602;55.670;37.578;2023-05-03T08:28:33;99459.88;;;14.72;50.92
35489;BME280;21602;55.670;37.578;2023-05-03T08:30:58;99468.50;;;14.74;51.24
35489;BME280;21602;55.670;37.578;2023-05-03T08:33:24;99470.41;;;14.79;51.43
35489;BME280;21602;55.670;37.578;2023-05-03T08:35:49;99476.56;;;14.74;51.83
35489;BME280;21602;55.670;37.578;2023-05-03T08:38:15;99473.81;;;14.69;52.51
35489;BME280;21602;55.670;37.578;2023-05-03T08:40:41;99469.81;;;14.72;52.44
35489;BME280;21602;55.670;37.578;2023-05-03T08:43:08;99472.81;;;14.80;52.85
35489;BME280;21602;55.670;37.578;2023-05-03T08:45:34;99472.63;;;14.87;52.69
35489;BME280;21602;55.670;37.578;2023-05-03T08:48:00;99461.06;;;14.87;52.61
35489;BME280;21602;55.670;37.578;2023-05-03T08:50:29;99449.22;;;14.88;53.27
35489;BME280;21602;55.670;37.578;2023-05-03T08:52:55;99463.34;;;15.05;53.11
35489;BME280;21602;55.670;37.578;2023-05-03T08:55:21;99456.63;;;15.13;53.08
35489;BME280;21602;55.670;37.578;2023-05-03T08:57:46;99461.22;;;15.17;52.86
35489;BME280;21602;55.670;37.578;2023-05-03T09:00:12;99453.66;;;15.09;52.56
35489;BME280;21602;55.670;37.578;2023-05-03T09:02:38;99458.16;;;14.98;53.33
35489;BME280;21602;55.670;37.578;2023-05-03T09:05:49;99456.97;;;14.79;53.52
35489;BME280;21602;55.670;37.578;2023-05-03T09:10:26;99467.00;;;14.24;55.25
35489;BME280;21602;55.670;37.578;2023-05-03T09:12:56;99476.44;;;14.05;56.43
35489;BME280;21602;55.670;37.578;2023-05-03T09:15:22;99489.09;;;13.82;58.42
35489;BME280;21602;55.670;37.578;2023-05-03T09:18:05;99491.53;;;13.62;58.97
35489;BME280;21602;55.670;37.578;2023-05-03T09:20:34;99500.63;;;13.39;59.82
35489;BME280;21602;55.670;37.578;2023-05-03T09:23:01;99496.25;;;13.33;60.13
35489;BME280;21602;55.670;37.578;2023-05-03T09:25:42;99496.81;;;13.35;60.69
35489;BME280;21602;55.670;37.578;2023-05-03T09:28:08;99485.03;;;13.36;61.81
35489;BME280;21602;55.670;37.578;2023-05-03T09:30:34;99480.28;;;13.43;61.65
35489;BME280;21602;55.670;37.578;2023-05-03T09:33:00;99486.16;;;13.40;61.90
35489;BME280;21602;55.670;37.578;2023-05-03T09:35:25;99485.22;;;13.29;62.60
35489;BME280;21602;55.670;37.578;2023-05-03T09:37:51;99485.91;;;13.42;62.42
35489;BME280;21602;55.670;37.578;2023-05-03T09:40:16;99498.00;;;13.66;62.09
35489;BME280;21602;55.670;37.578;2023-05-03T09:45:27;99505.63;;;13.96;61.86
35489;BME280;21602;55.670;37.578;2023-05-03T09:47:53;99501.13;;;14.02;61.86
35489;BME280;21602;55.670;37.578;2023-05-03T09:50:20;99506.38;;;13.92;62.40
35489;BME280;21602;55.670;37.578;2023-05-03T09:52:46;99505.94;;;13.78;62.93
35489;BME280;21602;55.670;37.578;2023-05-03T09:55:14;99508.56;;;13.73;63.05
35489;BME280;21602;55.670;37.578;2023-05-03T09:57:41;99506.50;;;13.80;63.73
35489;BME280;21602;55.670;37.578;2023-05-03T10:00:07;99510.41;;;13.94;63.26
35489;BME280;21602;55.670;37.578;2023-05-03T10:02:37;99503.69;;;14.19;62.86
35489;BME280;21602;55.670;37.578;2023-05-03T10:05:02;99499.84;;;14.37;62.70
35489;BME280;21602;55.670;37.578;2023-05-03T10:07:29;99503.94;;;14.44;62.63
35489;BME280;21602;55.670;37.578;2023-05-03T10:09:56;99509.88;;;14.46;62.40
35489;BME280;21602;55.670;37.578;2023-05-03T10:12:23;99505.56;;;14.45;62.71
35489;BME280;21602;55.670;37.578;2023-05-03T10:14:49;99514.63;;;14.66;61.63
35489;BME280;21602;55.670;37.578;2023-05-03T10:17:21;99500.81;;;14.84;62.19
35489;BME280;21602;55.670;37.578;2023-05-03T10:22:18;99496.06;;;14.97;61.27
35489;BME280;21602;55.670;37.578;2023-05-03T10:30:07;99497.63;;;14.55;61.19
35489;BME280;21602;55.670;37.578;2023-05-03T10:32:36;99497.84;;;14.49;61.42
35489;BME280;21602;55.670;37.578;2023-05-03T10:37:33;99501.50;;;14.43;61.89
35489;BME280;21602;55.670;37.578;2023-05-03T10:42:31;99514.50;;;14.51;61.45
35489;BME280;21602;55.670;37.578;2023-05-03T10:44:58;99511.09;;;14.60;61.28
35489;BME280;21602;55.670;37.578;2023-05-03T10:47:25;99507.44;;;14.72;61.15
35489;BME280;21602;55.670;37.578;2023-05-03T10:55:01;99499.69;;;14.80;60.85
35489;BME280;21602;55.670;37.578;2023-05-03T10:57:28;99498.69;;;14.87;60.79
35489;BME280;21602;55.670;37.578;2023-05-03T10:59:55;99511.06;;;14.88;60.24
35489;BME280;21602;55.670;37.578;2023-05-03T11:02:22;99505.88;;;14.81;60.11
35489;BME280;21602;55.670;37.578;2023-05-03T11:04:51;99498.09;;;14.79;60.01
35489;BME280;21602;55.670;37.578;2023-05-03T11:07:20;99499.44;;;14.77;59.97
35489;BME280;21602;55.670;37.578;2023-05-03T11:09:48;99508.38;;;14.55;60.45
35489;BME280;21602;55.670;37.578;2023-05-03T11:12:14;99500.03;;;14.57;59.90
35489;BME280;21602;55.670;37.578;2023-05-03T11:14:40;99505.25;;;14.69;59.93
35489;BME280;21602;55.670;37.578;2023-05-03T11:17:06;99498.81;;;14.70;59.54
35489;BME280;21602;55.670;37.578;2023-05-03T11:19:32;99509.13;;;14.83;59.51
35489;BME280;21602;55.670;37.578;2023-05-03T11:21:58;99505.28;;;15.06;59.20
35489;BME280;21602;55.670;37.578;2023-05-03T11:24:23;99494.97;;;15.40;58.59
35489;BME280;21602;55.670;37.578;2023-05-03T11:26:49;99495.81;;;15.51;57.56
35489;BME280;21602;55.670;37.578;2023-05-03T11:29:15;99490.22;;;15.57;57.04
35489;BME280;21602;55.670;37.578;2023-05-03T11:31:42;99487.88;;;15.71;56.90
35489;BME280;21602;55.670;37.578;2023-05-03T11:34:08;99486.06;;;15.87;56.23
35489;BME280;21602;55.670;37.578;2023-05-03T11:36:34;99487.97;;;15.97;55.75
35489;BME280;21602;55.670;37.578;2023-05-03T11:38:59;99480.66;;;15.82;55.15
35489;BME280;21602;55.670;37.578;2023-05-03T11:41:25;99487.31;;;15.64;55.55
35489;BME280;21602;55.670;37.578;2023-05-03T11:43:51;99479.41;;;15.52;55.52
35489;BME280;21602;55.670;37.578;2023-05-03T11:46:18;99483.91;;;15.36;55.96
35489;BME280;21602;55.670;37.578;2023-05-03T11:48:45;99483.09;;;15.31;56.06
35489;BME280;21602;55.670;37.578;2023-05-03T11:51:11;99477.44;;;15.32;56.09
35489;BME280;21602;55.670;37.578;2023-05-03T11:53:38;99470.78;;;15.45;55.79
35489;BME280;21602;55.670;37.578;2023-05-03T11:56:05;99480.75;;;15.50;55.68
35489;BME280;21602;55.670;37.578;2023-05-03T11:58:31;99469.41;;;15.43;54.99
35489;BME280;21602;55.670;37.578;2023-05-03T12:00:57;99476.31;;;15.23;54.85
35489;BME280;21602;55.670;37.578;2023-05-03T12:03:24;99484.94;;;15.25;55.27
35489;BME280;21602;55.670;37.578;2023-05-03T12:05:50;99479.88;;;15.29;55.11
35489;BME280;21602;55.670;37.578;2023-05-03T12:08:17;99481.22;;;15.36;55.30
35489;BME280;21602;55.670;37.578;2023-05-03T12:10:44;99483.72;;;15.48;55.38
35489;BME280;21602;55.670;37.578;2023-05-03T12:13:09;99492.72;;;15.69;55.12
35489;BME280;21602;55.670;37.578;2023-05-03T12:15:36;99494.91;;;15.82;54.32
35489;BME280;21602;55.670;37.578;2023-05-03T12:18:06;99494.94;;;15.93;54.16
35489;BME280;21602;55.670;37.578;2023-05-03T12:20:33;99501.97;;;15.99;54.03
35489;BME280;21602;55.670;37.578;2023-05-03T12:23:02;99503.31;;;16.01;53.53
35489;BME280;21602;55.670;37.578;2023-05-03T12:25:29;99500.84;;;15.84;53.69
35489;BME280;21602;55.670;37.578;2023-05-03T12:27:57;99500.72;;;15.59;53.98
35489;BME280;21602;55.670;37.578;2023-05-03T12:30:23;99497.03;;;15.70;53.94
35489;BME280;21602;55.670;37.578;2023-05-03T12:32:49;99490.88;;;15.80;53.79
35489;BME280;21602;55.670;37.578;2023-05-03T12:35:15;99494.97;;;15.98;53.62
35489;BME280;21602;55.670;37.578;2023-05-03T12:37:40;99499.28;;;16.09;53.35
35489;BME280;21602;55.670;37.578;2023-05-03T12:40:06;99488.56;;;16.19;52.77
35489;BME280;21602;55.670;37.578;2023-05-03T12:42:33;99486.94;;;16.23;52.64
35489;BME280;21602;55.670;37.578;2023-05-03T12:44:58;99480.72;;;16.07;52.98
35489;BME280;21602;55.670;37.578;2023-05-03T12:47:24;99490.66;;;15.92;53.02
35489;BME280;21602;55.670;37.578;2023-05-03T12:49:51;99499.81;;;15.91;53.42
35489;BME280;21602;55.670;37.578;2023-05-03T12:52:17;99505.75;;;16.03;53.28
35489;BME280;21602;55.670;37.578;2023-05-03T12:54:42;99496.06;;;16.12;53.18
35489;BME280;21602;55.670;37.578;2023-05-03T12:57:10;99496.38;;;16.21;53.07
35489;BME280;21602;55.670;37.578;2023-05-03T12:59:37;99485.56;;;16.10;53.01
35489;BME280;21602;55.670;37.578;2023-05-03T13:02:02;99491.75;;;15.96;53.53
35489;BME280;21602;55.670;37.578;2023-05-03T13:04:28;99490.31;;;15.78;54.27
35489;BME280;21602;55.670;37.578;2023-05-03T13:06:54;99492.75;;;15.79;54.10
35489;BME280;21602;55.670;37.578;2023-05-03T13:09:21;99492.47;;;15.76;54.35
35489;BME280;21602;55.670;37.578;2023-05-03T13:11:47;99509.13;;;15.68;54.44
35489;BME280;21602;55.670;37.578;2023-05-03T13:14:14;99501.78;;;15.53;54.59
35489;BME280;21602;55.670;37.578;2023-05-03T13:16:42;99504.31;;;15.27;54.97
35489;BME280;21602;55.670;37.578;2023-05-03T13:19:11;99505.91;;;15.23;55.19
35489;BME280;21602;55.670;37.578;2023-05-03T13:21:36;99496.50;;;15.21;55.52
35489;BME280;21602;55.670;37.578;2023-05-03T13:24:02;99510.22;;;15.24;55.33